Time;durP1;ratioP1;P1;durP2;ratioP2;P2;SDS_P1;SDS_P2;PMS_P1;PMS_P2;Temp;Humidity;BMP_temperature;BMP_pressure;BME280_temperature;BME280_humidity;BME280_pressure;Samples;Min_cycle;Max_cycle;Signal;HPM_P1;HPM_P2
2021/12/28 00:00:36;;;;;;;27.08;20.58;;;-0.30;99.90;;;;;;5153322;27;20558;-58
2021/12/28 00:03:16;;;;;;;32.65;21.67;;;-0.30;99.90;;;;;;5085889;27;20565;-58
2021/12/28 00:05:55;;;;;;;41.75;25.50;;;-0.30;99.90;;;;;;5085760;28;20561;-58
2021/12/28 00:08:36;;;;;;;36.60;24.10;;;-0.20;99.90;;;;;;5106834;27;20556;-56
2021/12/28 00:11:15;;;;;;;29.90;21.15;;;-0.20;99.90;;;;;;5085859;27;21219;-58
2021/12/28 00:14:00;;;;;;;27.70;20.50;;;-0.20;99.90;;;;;;5153307;27;20537;-58
2021/12/28 00:19:35;;;;;;;23.48;19.30;;;-0.20;99.90;;;;;;5147295;27;20543;-58
2021/12/28 00:22:15;;;;;;;26.02;20.77;;;-0.20;99.90;;;;;;5084100;28;21014;-58
2021/12/28 00:24:55;;;;;;;26.67;21.08;;;-0.20;99.90;;;;;;5085083;28;21208;-58
2021/12/28 00:27:35;;;;;;;29.52;21.58;;;-0.10;99.90;;;;;;5084947;27;20550;-58
2021/12/28 00:30:15;;;;;;;27.52;20.45;;;-0.10;99.90;;;;;;5084233;28;20680;-58
2021/12/28 00:32:56;;;;;;;27.33;20.30;;;-0.10;99.90;;;;;;5086065;28;20668;-58
2021/12/28 00:35:39;;;;;;;30.35;22.40;;;-0.10;99.90;;;;;;5085691;27;21137;-58
2021/12/28 00:38:22;;;;;;;26.20;20.02;;;-0.10;99.90;;;;;;5086129;27;21061;-58
2021/12/28 00:41:04;;;;;;;24.85;20.65;;;-0.10;99.90;;;;;;5085782;28;20707;-58
2021/12/28 00:43:44;;;;;;;25.83;20.77;;;-0.10;99.90;;;;;;5086496;28;20668;-58
2021/12/28 00:46:23;;;;;;;23.52;19.40;;;-0.10;99.90;;;;;;5085660;28;20575;-58
2021/12/28 00:49:03;;;;;;;25.17;20.27;;;0.00;99.90;;;;;;5076699;28;20678;-58
2021/12/28 00:51:43;;;;;;;27.13;18.83;;;0.00;99.90;;;;;;5071530;28;20702;-58
2021/12/28 00:54:23;;;;;;;22.63;18.20;;;0.00;99.90;;;;;;5117500;27;20571;-58
2021/12/28 00:57:03;;;;;;;25.42;20.65;;;0.00;99.90;;;;;;5085676;28;20675;-58
2021/12/28 00:59:42;;;;;;;25.70;19.35;;;0.00;99.90;;;;;;5085925;28;20679;-58
2021/12/28 01:02:22;;;;;;;24.52;18.73;;;0.00;99.90;;;;;;5147402;27;20682;-58
2021/12/28 01:05:02;;;;;;;25.52;19.92;;;0.00;99.90;;;;;;5085271;27;20536;-58
2021/12/28 01:07:42;;;;;;;23.77;19.85;;;0.00;99.90;;;;;;5106190;27;20538;-58
2021/12/28 01:10:25;;;;;;;22.45;18.23;;;0.10;99.90;;;;;;5085840;27;20543;-58
2021/12/28 01:13:05;;;;;;;24.33;20.55;;;0.10;99.90;;;;;;5086058;27;20536;-58
2021/12/28 01:15:45;;;;;;;21.38;17.45;;;0.10;99.90;;;;;;5085698;28;20679;-58
2021/12/28 01:18:25;;;;;;;23.52;20.85;;;0.20;99.90;;;;;;5142975;27;21221;-58
2021/12/28 01:21:04;;;;;;;27.35;21.23;;;0.20;99.90;;;;;;5082549;28;20571;-58
2021/12/28 01:23:44;;;;;;;24.23;19.42;;;0.20;99.90;;;;;;5084813;28;20672;-58
2021/12/28 01:26:24;;;;;;;22.73;19.13;;;0.30;99.90;;;;;;5085121;28;20707;-58
2021/12/28 01:29:04;;;;;;;25.00;20.20;;;0.30;99.90;;;;;;5086219;28;20676;-58
2021/12/28 01:31:44;;;;;;;23.42;19.33;;;0.30;99.90;;;;;;5085889;27;20563;-58
2021/12/28 01:34:23;;;;;;;20.60;18.45;;;0.40;99.90;;;;;;5147067;27;20892;-58
2021/12/28 01:37:03;;;;;;;25.50;19.27;;;0.40;99.90;;;;;;5086037;28;20659;-58
2021/12/28 01:39:43;;;;;;;25.70;19.77;;;0.40;99.90;;;;;;5147854;27;20560;-58
2021/12/28 01:42:23;;;;;;;23.90;19.48;;;0.40;99.90;;;;;;5085956;27;20599;-58
2021/12/28 01:45:03;;;;;;;22.33;19.92;;;0.40;99.90;;;;;;5086684;27;21009;-58
2021/12/28 01:47:42;;;;;;;21.95;16.88;;;0.40;99.90;;;;;;5086672;27;20551;-58
2021/12/28 01:50:22;;;;;;;23.08;18.73;;;0.40;99.90;;;;;;5086449;28;20656;-58
2021/12/28 01:53:04;;;;;;;23.23;18.38;;;0.40;99.90;;;;;;5141665;27;20556;-58
2021/12/28 01:55:48;;;;;;;19.98;16.77;;;0.40;99.90;;;;;;5125453;27;20532;-58
2021/12/28 01:58:27;;;;;;;20.52;17.00;;;0.40;99.90;;;;;;5084891;27;20892;-58
2021/12/28 02:01:07;;;;;;;20.83;17.67;;;0.50;99.90;;;;;;5077656;27;20553;-58
2021/12/28 02:03:47;;;;;;;19.58;17.15;;;0.50;99.90;;;;;;5106173;27;20669;-58
2021/12/28 02:06:28;;;;;;;18.80;16.77;;;0.50;99.90;;;;;;5081611;28;20683;-58
2021/12/28 02:09:07;;;;;;;18.42;16.52;;;0.50;99.90;;;;;;5078862;28;20684;-58
2021/12/28 02:11:48;;;;;;;18.55;15.63;;;0.50;99.90;;;;;;5085678;27;20563;-58
2021/12/28 02:14:27;;;;;;;17.92;16.13;;;0.60;99.90;;;;;;5084766;27;20668;-58
2021/12/28 02:17:07;;;;;;;18.30;16.45;;;0.60;99.90;;;;;;5147044;27;20713;-58
2021/12/28 02:19:47;;;;;;;19.25;17.15;;;0.60;99.90;;;;;;5085859;28;20656;-58
2021/12/28 02:22:27;;;;;;;15.70;14.00;;;0.60;99.90;;;;;;5147457;27;20550;-58
2021/12/28 02:25:08;;;;;;;18.75;16.13;;;0.60;99.90;;;;;;5085599;28;20683;-58
2021/12/28 02:27:48;;;;;;;20.02;17.90;;;0.60;99.90;;;;;;5147828;27;20654;-58
2021/12/28 02:30:28;;;;;;;17.85;15.32;;;0.60;99.90;;;;;;5086061;28;20672;-58
2021/12/28 02:33:08;;;;;;;17.52;15.52;;;0.60;99.90;;;;;;5086062;27;20575;-58
2021/12/28 02:35:48;;;;;;;17.35;15.48;;;0.60;99.90;;;;;;5086149;27;20539;-56
2021/12/28 02:38:28;;;;;;;17.35;13.13;;;0.60;99.90;;;;;;5100079;27;20576;-58
2021/12/28 02:41:09;;;;;;;15.10;13.30;;;0.60;99.90;;;;;;5155293;27;21219;-58
2021/12/28 02:43:49;;;;;;;17.52;13.50;;;0.60;99.90;;;;;;5122565;27;20689;-58
2021/12/28 02:46:28;;;;;;;14.57;13.18;;;0.70;99.90;;;;;;5086187;28;20679;-58
2021/12/28 02:49:08;;;;;;;13.65;12.30;;;0.70;99.90;;;;;;5079572;27;20555;-58
2021/12/28 02:51:48;;;;;;;15.27;13.75;;;0.70;99.90;;;;;;5144989;27;20570;-58
2021/12/28 02:54:28;;;;;;;15.50;13.88;;;0.70;99.90;;;;;;5084809;27;20552;-58
2021/12/28 02:57:08;;;;;;;14.23;12.55;;;0.70;99.90;;;;;;5106450;27;20669;-58
2021/12/28 02:59:49;;;;;;;13.65;12.23;;;0.70;99.90;;;;;;5147733;27;20665;-58
2021/12/28 03:02:29;;;;;;;13.73;12.50;;;0.70;99.90;;;;;;5085938;28;20676;-58
2021/12/28 03:05:09;;;;;;;13.93;12.52;;;0.70;99.90;;;;;;5085566;28;20671;-58
2021/12/28 03:07:48;;;;;;;13.75;12.40;;;0.70;99.90;;;;;;5106465;27;20662;-58
2021/12/28 03:10:28;;;;;;;12.82;11.63;;;0.70;99.90;;;;;;5106580;27;21017;-58
2021/12/28 03:13:10;;;;;;;13.27;12.02;;;0.70;99.90;;;;;;5085697;28;20656;-58
2021/12/28 03:15:50;;;;;;;13.27;12.00;;;0.70;99.90;;;;;;5106003;27;20657;-58
2021/12/28 03:18:29;;;;;;;13.30;12.10;;;0.70;99.90;;;;;;5086032;28;21024;-58
2021/12/28 03:21:11;;;;;;;12.45;11.35;;;0.70;99.90;;;;;;5085792;27;20683;-58
2021/12/28 03:23:52;;;;;;;13.48;11.95;;;0.70;99.90;;;;;;5102485;27;20554;-58
2021/12/28 03:26:32;;;;;;;14.45;13.15;;;0.70;99.90;;;;;;5116979;27;20873;-58
2021/12/28 03:29:12;;;;;;;13.65;12.27;;;0.70;99.90;;;;;;5085801;28;20683;-58
2021/12/28 03:31:52;;;;;;;15.50;13.90;;;0.70;99.90;;;;;;5146577;27;20685;-58
2021/12/28 03:34:31;;;;;;;15.02;13.50;;;0.70;99.90;;;;;;5085650;28;20556;-58
2021/12/28 03:37:11;;;;;;;13.90;12.70;;;0.70;99.90;;;;;;5106147;27;20537;-58
2021/12/28 03:39:51;;;;;;;14.23;12.82;;;0.70;99.90;;;;;;5086080;27;20544;-58
2021/12/28 03:42:31;;;;;;;14.65;13.13;;;0.70;99.90;;;;;;5126818;27;21235;-58
2021/12/28 03:45:12;;;;;;;15.27;13.80;;;0.70;99.90;;;;;;5086111;27;20536;-58
2021/12/28 03:47:52;;;;;;;14.60;13.20;;;0.70;99.90;;;;;;5085432;28;20539;-58
2021/12/28 03:50:33;;;;;;;14.75;13.30;;;0.70;99.90;;;;;;5085771;27;20551;-58
2021/12/28 03:53:12;;;;;;;14.82;13.32;;;0.70;99.90;;;;;;5086229;28;20675;-58
2021/12/28 03:55:52;;;;;;;13.32;12.02;;;0.70;99.90;;;;;;5147064;27;21051;-58
2021/12/28 03:58:32;;;;;;;16.17;13.60;;;0.70;99.90;;;;;;5085853;27;21101;-58
2021/12/28 04:01:14;;;;;;;14.55;13.10;;;0.70;99.90;;;;;;5085203;28;20687;-58
2021/12/28 04:03:53;;;;;;;14.85;13.43;;;0.70;99.90;;;;;;5066376;27;20544;-58
2021/12/28 04:06:34;;;;;;;14.70;13.32;;;0.70;99.90;;;;;;5085411;27;21029;-58
2021/12/28 04:09:20;;;;;;;15.10;13.48;;;0.80;99.90;;;;;;5106418;27;20661;-58
2021/12/28 04:12:00;;;;;;;15.68;14.10;;;0.80;99.90;;;;;;5085961;28;20668;-58
2021/12/28 04:14:40;;;;;;;15.45;13.85;;;0.80;99.90;;;;;;5085573;27;20536;-58
2021/12/28 04:17:20;;;;;;;14.43;13.10;;;0.70;99.90;;;;;;5085980;27;20532;-58
2021/12/28 04:20:00;;;;;;;15.25;13.75;;;0.80;99.90;;;;;;5147503;27;21015;-58
2021/12/28 04:22:40;;;;;;;16.75;13.10;;;0.80;99.90;;;;;;5086084;28;21173;-58
2021/12/28 04:25:19;;;;;;;16.45;14.75;;;0.70;99.90;;;;;;5106006;27;20549;-58
2021/12/28 04:27:59;;;;;;;14.85;13.38;;;0.70;99.90;;;;;;5147816;27;20682;-58
2021/12/28 04:30:39;;;;;;;15.52;13.85;;;0.70;99.90;;;;;;5126789;27;20548;-58
2021/12/28 04:33:19;;;;;;;16.45;14.70;;;0.80;99.90;;;;;;5085822;27;20543;-58
2021/12/28 04:35:59;;;;;;;15.60;13.93;;;0.70;99.90;;;;;;5085574;28;21192;-58
2021/12/28 04:38:39;;;;;;;16.27;14.50;;;0.70;99.90;;;;;;5085761;28;20668;-58
2021/12/28 04:41:19;;;;;;;15.82;14.13;;;0.70;99.90;;;;;;5082407;27;20559;-58
2021/12/28 04:44:01;;;;;;;16.65;14.95;;;0.80;99.90;;;;;;5106337;27;20670;-58
2021/12/28 04:46:40;;;;;;;16.58;14.98;;;0.80;99.90;;;;;;5145058;27;20676;-58
2021/12/28 04:49:21;;;;;;;18.17;15.10;;;0.80;99.90;;;;;;5076972;27;20551;-58
2021/12/28 04:52:02;;;;;;;18.20;15.38;;;0.70;99.90;;;;;;5147650;27;21220;-58
2021/12/28 04:54:41;;;;;;;19.23;15.35;;;0.70;99.90;;;;;;5085118;28;20935;-58
2021/12/28 04:57:21;;;;;;;17.10;15.35;;;0.80;99.90;;;;;;5095271;27;20677;-58
2021/12/28 05:00:00;;;;;;;16.27;14.48;;;0.80;99.90;;;;;;5083561;27;20551;-58
2021/12/28 05:02:40;;;;;;;16.55;14.75;;;0.70;99.90;;;;;;5073743;28;20667;-58
2021/12/28 05:05:20;;;;;;;17.20;15.35;;;0.70;99.90;;;;;;5084485;28;21192;-58
2021/12/28 05:08:00;;;;;;;15.18;13.48;;;0.80;99.90;;;;;;5085739;27;21083;-58
2021/12/28 05:10:40;;;;;;;14.23;12.75;;;0.80;99.90;;;;;;5080457;27;20893;-58
2021/12/28 05:13:20;;;;;;;14.18;12.88;;;0.80;99.90;;;;;;5085556;27;20531;-58
2021/12/28 05:15:59;;;;;;;14.68;12.98;;;0.90;99.90;;;;;;5082757;27;20703;-58
2021/12/28 05:18:39;;;;;;;14.82;13.32;;;0.90;99.90;;;;;;5073733;27;20584;-58
2021/12/28 05:21:19;;;;;;;14.43;12.05;;;0.80;99.90;;;;;;5122961;27;20560;-58
2021/12/28 05:23:59;;;;;;;13.98;12.52;;;0.90;99.90;;;;;;5138051;27;20681;-58
2021/12/28 05:26:39;;;;;;;14.80;13.30;;;0.90;99.90;;;;;;5126640;27;20529;-58
2021/12/28 05:29:18;;;;;;;13.30;11.82;;;0.90;99.90;;;;;;5085062;27;20543;-58
2021/12/28 05:31:58;;;;;;;14.60;13.10;;;0.90;99.90;;;;;;5081007;27;21220;-57
2021/12/28 05:34:38;;;;;;;15.35;12.98;;;1.00;99.90;;;;;;5084785;27;21068;-58
2021/12/28 05:37:18;;;;;;;13.98;12.25;;;1.00;99.90;;;;;;5086014;27;20540;-58
2021/12/28 05:39:58;;;;;;;13.43;12.10;;;1.00;99.90;;;;;;5148034;27;20669;-58
2021/12/28 05:42:38;;;;;;;14.25;12.68;;;1.00;99.90;;;;;;5137787;27;20964;-58
2021/12/28 05:45:17;;;;;;;13.35;12.05;;;1.00;99.90;;;;;;5061742;27;20557;-58
2021/12/28 05:47:59;;;;;;;16.15;12.52;;;1.00;99.90;;;;;;5143398;27;20554;-58
2021/12/28 05:50:39;;;;;;;15.02;13.25;;;1.00;99.90;;;;;;5077751;28;20676;-58
2021/12/28 05:53:18;;;;;;;16.50;12.65;;;1.00;99.90;;;;;;5116570;27;20560;-58
2021/12/28 05:55:58;;;;;;;14.23;12.68;;;1.00;99.90;;;;;;5134311;27;20677;-58
2021/12/28 05:58:38;;;;;;;14.63;12.07;;;1.00;99.90;;;;;;5136879;27;20563;-58
2021/12/28 06:01:18;;;;;;;13.98;12.48;;;1.00;99.90;;;;;;5075334;27;20569;-58
2021/12/28 06:03:58;;;;;;;13.10;11.80;;;1.00;99.90;;;;;;5064463;28;20674;-58
2021/12/28 06:06:38;;;;;;;13.95;12.15;;;1.00;99.90;;;;;;5106261;27;21058;-58
2021/12/28 06:09:17;;;;;;;13.73;12.43;;;1.00;99.90;;;;;;5086468;27;21064;-58
2021/12/28 06:11:57;;;;;;;12.77;11.48;;;1.00;99.90;;;;;;5086428;28;20687;-58
2021/12/28 06:14:37;;;;;;;13.88;12.38;;;1.00;99.90;;;;;;5085946;28;20672;-58
2021/12/28 06:17:17;;;;;;;13.02;11.75;;;1.00;99.90;;;;;;5081082;28;20681;-58
2021/12/28 06:19:57;;;;;;;11.82;10.70;;;1.00;99.90;;;;;;5105901;27;20542;-58
2021/12/28 06:22:37;;;;;;;12.95;11.65;;;1.00;99.90;;;;;;5084922;28;20675;-58
2021/12/28 06:25:16;;;;;;;23.80;21.30;;;1.00;99.90;;;;;;5085184;28;20683;-58
2021/12/28 06:27:56;;;;;;;14.32;12.88;;;1.00;99.90;;;;;;5147380;27;20538;-58
2021/12/28 06:30:36;;;;;;;16.25;14.63;;;1.10;99.90;;;;;;5106363;27;20956;-58
2021/12/28 06:33:16;;;;;;;12.55;11.30;;;1.00;99.90;;;;;;5085834;27;20536;-58
2021/12/28 06:35:56;;;;;;;12.93;11.43;;;1.10;99.90;;;;;;5126641;27;20544;-58
2021/12/28 06:38:36;;;;;;;13.48;11.98;;;1.10;99.90;;;;;;5147254;27;20530;-58
2021/12/28 06:41:15;;;;;;;14.35;13.02;;;1.10;99.90;;;;;;5147789;27;20677;-58
2021/12/28 06:43:55;;;;;;;13.55;12.15;;;1.10;99.90;;;;;;5085998;28;20668;-55
2021/12/28 06:46:35;;;;;;;12.23;11.10;;;1.10;99.90;;;;;;5085520;27;20573;-58
2021/12/28 06:49:15;;;;;;;15.68;12.60;;;1.10;99.90;;;;;;5085796;27;21040;-58
2021/12/28 06:51:55;;;;;;;14.48;13.00;;;1.10;99.90;;;;;;5147712;27;20657;-58
2021/12/28 06:54:37;;;;;;;13.65;12.23;;;1.10;99.90;;;;;;5105910;27;20557;-58
2021/12/28 06:57:16;;;;;;;15.13;12.38;;;1.10;99.90;;;;;;5086375;28;20675;-57
2021/12/28 06:59:56;;;;;;;12.13;10.93;;;1.10;99.90;;;;;;5086087;27;20549;-58
2021/12/28 07:02:36;;;;;;;13.00;11.80;;;1.10;99.90;;;;;;5106208;27;20537;-58
2021/12/28 07:05:15;;;;;;;13.70;12.38;;;1.10;99.90;;;;;;5105793;27;20956;-58
2021/12/28 07:07:57;;;;;;;12.88;11.63;;;1.10;99.90;;;;;;5127201;27;20536;-58
2021/12/28 07:10:37;;;;;;;13.00;11.82;;;1.20;99.90;;;;;;5127309;27;20551;-58
2021/12/28 07:13:16;;;;;;;12.48;11.38;;;1.20;99.90;;;;;;5086488;28;20668;-58
2021/12/28 07:15:56;;;;;;;13.02;11.80;;;1.30;99.90;;;;;;5065206;27;20568;-58
2021/12/28 07:18:36;;;;;;;14.82;13.35;;;1.30;99.90;;;;;;5081572;27;20972;-58
2021/12/28 07:21:16;;;;;;;10.05;9.15;;;1.30;99.90;;;;;;5095548;27;20683;-58
2021/12/28 07:23:56;;;;;;;9.60;8.80;;;1.30;99.90;;;;;;5117781;27;20554;-58
2021/12/28 07:26:37;;;;;;;8.85;8.13;;;1.40;99.90;;;;;;5083407;27;20548;-57
2021/12/28 07:29:16;;;;;;;9.45;8.48;;;1.50;99.90;;;;;;5084851;27;20540;-58
2021/12/28 07:31:55;;;;;;;11.02;10.02;;;1.50;99.90;;;;;;5070354;27;20686;-58
2021/12/28 07:34:36;;;;;;;13.15;11.95;;;1.60;99.90;;;;;;5084149;28;20680;-58
2021/12/28 07:37:15;;;;;;;12.10;11.02;;;1.50;99.90;;;;;;5126306;27;20529;-58
2021/12/28 07:39:55;;;;;;;12.18;10.93;;;1.40;99.90;;;;;;5085686;27;20531;-58
2021/12/28 07:42:35;;;;;;;12.43;11.07;;;1.50;99.90;;;;;;5085103;27;20539;-58
2021/12/28 07:45:15;;;;;;;12.98;11.68;;;1.40;99.90;;;;;;5085282;27;20897;-57
2021/12/28 07:47:54;;;;;;;12.20;11.05;;;1.40;99.90;;;;;;5147078;27;20657;-58
2021/12/28 07:50:34;;;;;;;12.98;11.65;;;1.40;99.90;;;;;;5081850;28;20697;-58
2021/12/28 07:53:14;;;;;;;11.60;10.30;;;1.40;99.90;;;;;;5086236;27;20593;-58
2021/12/28 07:55:54;;;;;;;12.77;11.27;;;1.40;99.90;;;;;;5082808;28;20691;-58
2021/12/28 07:58:34;;;;;;;13.75;12.35;;;1.40;99.90;;;;;;5084534;28;21096;-58
2021/12/28 08:01:13;;;;;;;12.63;11.43;;;1.40;99.90;;;;;;5125057;27;20617;-58
2021/12/28 08:03:53;;;;;;;14.85;12.50;;;1.50;99.90;;;;;;5085108;27;20539;-58
2021/12/28 08:06:34;;;;;;;14.35;12.32;;;1.50;99.90;;;;;;5084384;27;20539;-56
2021/12/28 08:09:13;;;;;;;14.15;12.70;;;1.50;99.90;;;;;;5083735;28;21019;-58
2021/12/28 08:11:53;;;;;;;13.23;11.43;;;1.60;99.90;;;;;;5068761;28;21210;-57
2021/12/28 08:14:32;;;;;;;13.48;12.05;;;1.60;99.90;;;;;;5085299;28;20715;-58
2021/12/28 08:17:12;;;;;;;14.73;13.20;;;1.60;99.90;;;;;;5084282;27;20548;-58
2021/12/28 08:19:52;;;;;;;13.45;12.07;;;1.60;99.90;;;;;;5084596;27;20539;-58
2021/12/28 08:22:32;;;;;;;16.10;13.32;;;1.70;99.90;;;;;;5103900;27;20545;-58
2021/12/28 08:25:13;;;;;;;12.57;11.38;;;1.70;99.90;;;;;;5125681;27;20544;-58
2021/12/28 08:27:53;;;;;;;13.70;12.10;;;1.70;99.90;;;;;;5105227;27;20849;-58
2021/12/28 08:30:35;;;;;;;12.57;11.27;;;1.80;99.90;;;;;;5084877;28;20703;-58
2021/12/28 08:33:15;;;;;;;14.85;12.52;;;1.80;99.90;;;;;;5084850;27;20555;-57
2021/12/28 08:35:56;;;;;;;13.00;11.20;;;1.80;99.90;;;;;;5085033;28;20675;-57
2021/12/28 08:38:38;;;;;;;14.02;12.57;;;1.90;99.90;;;;;;5117462;27;20537;-58
2021/12/28 08:41:18;;;;;;;13.35;12.05;;;1.90;99.90;;;;;;5084729;27;20683;-58
2021/12/28 08:43:57;;;;;;;10.13;9.23;;;1.90;99.90;;;;;;5106033;27;22000;-57
2021/12/28 08:46:37;;;;;;;11.23;10.13;;;2.00;99.90;;;;;;5085067;27;20981;-58
2021/12/28 08:49:17;;;;;;;11.60;10.70;;;2.00;99.90;;;;;;5085001;27;20565;-59
2021/12/28 08:51:56;;;;;;;10.98;9.98;;;2.10;99.90;;;;;;5140549;27;20584;-57
2021/12/28 08:54:37;;;;;;;10.65;9.75;;;2.10;99.90;;;;;;5068184;27;20595;-58
2021/12/28 08:57:17;;;;;;;11.70;10.60;;;2.20;99.90;;;;;;5086135;22;20727;-59
2021/12/28 08:59:58;;;;;;;10.18;9.38;;;2.20;99.90;;;;;;5083766;27;20556;-58
2021/12/28 09:02:37;;;;;;;10.15;9.30;;;2.30;99.90;;;;;;5083421;27;20569;-59
2021/12/28 09:05:18;;;;;;;10.80;9.90;;;2.30;99.90;;;;;;5079491;28;20561;-58
2021/12/28 09:07:59;;;;;;;10.45;9.55;;;2.30;99.90;;;;;;5069705;27;20565;-58
2021/12/28 09:10:38;;;;;;;9.70;9.00;;;2.40;99.90;;;;;;5082718;27;20536;-60
2021/12/28 09:13:19;;;;;;;10.23;9.35;;;2.40;99.90;;;;;;5124145;27;20591;-58
2021/12/28 09:15:58;;;;;;;10.00;9.23;;;2.40;99.90;;;;;;5083282;28;20551;-58
2021/12/28 09:18:39;;;;;;;10.60;9.60;;;2.40;99.90;;;;;;5083264;28;20566;-57
2021/12/28 09:21:22;;;;;;;14.23;12.00;;;2.50;99.90;;;;;;5069295;27;1728919;-58
2021/12/28 09:24:02;;;;;;;11.93;10.73;;;2.50;99.90;;;;;;5113403;27;20540;-57
2021/12/28 09:26:42;;;;;;;12.10;10.30;;;2.50;99.90;;;;;;5078065;28;21039;-58
2021/12/28 09:29:25;;;;;;;9.65;8.85;;;2.50;99.90;;;;;;5103451;27;20545;-58
2021/12/28 09:32:06;;;;;;;10.93;9.82;;;2.50;99.90;;;;;;5082863;27;21025;-60
2021/12/28 09:34:47;;;;;;;9.45;8.73;;;2.40;99.90;;;;;;5083071;28;20679;-57
2021/12/28 09:37:26;;;;;;;9.63;8.82;;;2.40;99.90;;;;;;5139972;27;20950;-58
2021/12/28 09:40:09;;;;;;;9.45;8.52;;;2.50;99.90;;;;;;5082471;27;20543;-57
2021/12/28 09:42:49;;;;;;;9.48;8.70;;;2.50;99.90;;;;;;5144729;27;20539;-57
2021/12/28 09:45:29;;;;;;;9.02;8.32;;;2.50;99.90;;;;;;5143004;27;20538;-58
2021/12/28 09:48:10;;;;;;;8.73;8.02;;;2.50;99.90;;;;;;5104372;27;20678;-57
2021/12/28 09:50:50;;;;;;;10.02;9.02;;;2.50;99.90;;;;;;5082755;28;21033;-61
2021/12/28 09:53:30;;;;;;;10.38;9.48;;;2.60;99.90;;;;;;5067117;27;21011;-58
2021/12/28 09:56:11;;;;;;;10.77;9.88;;;2.70;99.90;;;;;;5102282;27;20661;-58
2021/12/28 09:58:50;;;;;;;11.18;10.18;;;2.90;99.90;;;;;;5083917;27;20676;-58
2021/12/28 10:01:29;;;;;;;8.93;8.23;;;3.00;99.90;;;;;;5153837;27;20542;-57
2021/12/28 10:04:10;;;;;;;8.90;8.25;;;3.10;99.90;;;;;;5083293;28;21201;-57
2021/12/28 10:06:49;;;;;;;8.18;7.47;;;3.20;99.90;;;;;;5080292;27;20919;-57
2021/12/28 10:09:29;;;;;;;9.30;8.40;;;3.20;99.90;;;;;;5075737;27;20536;-59
2021/12/28 10:12:10;;;;;;;8.85;8.13;;;3.10;99.90;;;;;;5102219;27;20670;-58
2021/12/28 10:14:55;;;;;;;9.27;8.48;;;3.10;99.90;;;;;;5079994;27;20902;-58
2021/12/28 10:17:35;;;;;;;9.02;8.25;;;3.10;99.90;;;;;;5083384;27;20576;-60
2021/12/28 10:20:19;;;;;;;8.63;7.97;;;3.20;99.90;;;;;;5083503;27;20991;-57
2021/12/28 10:22:59;;;;;;;7.93;7.32;;;3.40;99.90;;;;;;5104006;27;20685;-57
2021/12/28 10:25:42;;;;;;;8.45;7.75;;;3.80;99.90;;;;;;5102158;27;20975;-59
2021/12/28 10:28:23;;;;;;;7.78;7.18;;;4.10;99.90;;;;;;5066355;27;20545;-58
2021/12/28 10:31:05;;;;;;;7.57;6.97;;;4.30;99.90;;;;;;5083569;27;20543;-58
2021/12/28 10:33:45;;;;;;;6.65;6.18;;;4.50;99.90;;;;;;5083270;28;20664;-58
2021/12/28 10:36:33;;;;;;;10.77;10.10;;;4.60;99.90;;;;;;5081523;27;20562;-59
2021/12/28 10:39:13;;;;;;;9.15;8.55;;;4.80;99.90;;;;;;5143672;27;20539;-59
2021/12/28 10:41:52;;;;;;;6.95;6.45;;;4.70;99.90;;;;;;5083152;27;20596;-58
2021/12/28 10:44:32;;;;;;;7.03;6.53;;;4.50;99.90;;;;;;5103094;27;20957;-58
2021/12/28 10:47:26;;;;;;;7.50;6.80;;;4.40;99.90;;;;;;5075227;27;21157;-58
2021/12/28 10:50:25;;;;;;;6.95;6.45;;;4.20;99.90;;;;;;5083166;27;20543;-57
2021/12/28 10:53:13;;;;;;;7.00;6.50;;;4.10;99.90;;;;;;5080061;27;21325;-59
2021/12/28 10:55:56;;;;;;;7.75;7.05;;;3.90;99.90;;;;;;5140964;27;20631;-57
2021/12/28 10:58:40;;;;;;;6.88;6.38;;;3.80;99.90;;;;;;5123773;27;20994;-58
2021/12/28 11:01:22;;;;;;;7.28;6.53;;;3.80;99.90;;;;;;5103252;27;20900;-57
2021/12/28 11:04:04;;;;;;;6.10;5.55;;;3.90;99.90;;;;;;5103237;27;21224;-58
2021/12/28 11:06:46;;;;;;;7.05;6.50;;;4.00;99.90;;;;;;5104623;27;21210;-58
2021/12/28 11:09:27;;;;;;;7.28;6.68;;;3.90;99.90;;;;;;5084337;28;20671;-58
2021/12/28 11:12:07;;;;;;;6.43;5.93;;;4.00;99.90;;;;;;5084177;27;21029;-58
2021/12/28 11:14:47;;;;;;;6.97;6.45;;;4.00;99.90;;;;;;5083462;27;20543;-58
2021/12/28 11:17:33;;;;;;;7.35;6.75;;;4.20;99.90;;;;;;5104675;27;20626;-58
2021/12/28 11:20:13;;;;;;;6.97;6.28;;;4.30;99.90;;;;;;5084438;28;20668;-57
2021/12/28 11:23:11;;;;;;;7.80;6.88;;;4.30;99.90;;;;;;5084156;27;20539;-57
2021/12/28 11:26:02;;;;;;;7.57;6.82;;;4.10;99.90;;;;;;5083913;27;20536;-57
2021/12/28 11:28:44;;;;;;;7.90;7.30;;;4.10;99.90;;;;;;5084428;27;20675;-57
2021/12/28 11:31:25;;;;;;;6.75;6.35;;;4.10;99.90;;;;;;5103246;27;20685;-58
2021/12/28 11:34:11;;;;;;;6.38;5.88;;;4.10;99.90;;;;;;5138953;27;20661;-57
2021/12/28 11:36:53;;;;;;;7.05;6.45;;;4.30;99.90;;;;;;5082750;28;20676;-58
2021/12/28 11:39:34;;;;;;;7.07;6.40;;;4.30;99.90;;;;;;5104129;27;20534;-58
2021/12/28 11:42:16;;;;;;;7.72;7.07;;;4.30;99.90;;;;;;5103545;27;21114;-58
2021/12/28 11:44:56;;;;;;;7.80;7.20;;;4.20;99.90;;;;;;5102706;27;20545;-58
2021/12/28 11:47:36;;;;;;;8.07;7.38;;;4.20;99.90;;;;;;5145061;27;20603;-59
2021/12/28 11:50:16;;;;;;;8.18;7.57;;;4.10;99.90;;;;;;5104383;27;20673;-58
2021/12/28 11:52:55;;;;;;;8.23;7.43;;;4.10;99.90;;;;;;5124237;27;20998;-57
2021/12/28 11:55:35;;;;;;;5.57;5.05;;;4.00;99.90;;;;;;5103447;27;20534;-58
2021/12/28 11:58:15;;;;;;;7.40;6.70;;;3.90;99.90;;;;;;5084253;27;20551;-58
2021/12/28 12:00:55;;;;;;;6.80;6.20;;;3.80;99.90;;;;;;5146544;27;20572;-57
2021/12/28 12:03:39;;;;;;;8.30;7.60;;;3.70;99.90;;;;;;5104665;27;21066;-57
2021/12/28 12:06:39;;;;;;;7.47;6.88;;;3.70;99.90;;;;;;5083901;27;21076;-58
2021/12/28 12:09:18;;;;;;;6.75;6.15;;;3.80;99.90;;;;;;5125166;27;21072;-58
2021/12/28 12:12:17;;;;;;;7.80;7.20;;;3.90;99.90;;;;;;5124865;27;20540;-60
2021/12/28 12:15:13;;;;;;;7.55;6.85;;;4.10;99.90;;;;;;5097540;27;20691;-59
2021/12/28 12:17:59;;;;;;;7.35;6.82;;;4.20;99.90;;;;;;5083254;28;20699;-58
2021/12/28 12:20:45;;;;;;;6.78;6.22;;;4.30;99.90;;;;;;5083060;27;20543;-58
2021/12/28 12:23:28;;;;;;;6.75;6.15;;;4.30;99.90;;;;;;5083352;28;20550;-58
2021/12/28 12:26:12;;;;;;;6.45;5.88;;;4.30;99.90;;;;;;5083782;27;20551;-60
2021/12/28 12:28:54;;;;;;;6.18;5.68;;;4.20;99.90;;;;;;5145932;27;20546;-58
2021/12/28 12:31:36;;;;;;;6.20;5.70;;;4.20;99.90;;;;;;5084098;27;20679;-57
2021/12/28 12:34:32;;;;;;;7.07;6.38;;;4.20;99.90;;;;;;5124522;27;20663;-58
2021/12/28 12:37:21;;;;;;;6.45;5.95;;;4.20;99.90;;;;;;5104814;27;20681;-59
2021/12/28 12:40:01;;;;;;;7.68;6.85;;;4.00;99.90;;;;;;5104466;27;21017;-58
2021/12/28 12:42:41;;;;;;;7.22;6.50;;;3.90;99.90;;;;;;5084539;27;21056;-58
2021/12/28 12:46:05;;;;;;;7.32;6.57;;;3.80;99.90;;;;;;5145236;27;20662;-59
2021/12/28 12:49:06;;;;;;;6.57;5.97;;;3.70;99.90;;;;;;5104437;27;20538;-58
2021/12/28 12:51:52;;;;;;;6.68;5.97;;;3.80;99.90;;;;;;5084324;28;20668;-58
2021/12/28 12:54:40;;;;;;;6.47;5.97;;;3.90;99.90;;;;;;5083852;27;20569;-58
2021/12/28 12:57:25;;;;;;;5.78;5.38;;;4.00;99.90;;;;;;5104095;27;21089;-59
2021/12/28 13:00:15;;;;;;;6.20;5.70;;;4.10;99.90;;;;;;5084100;28;20648;-58
2021/12/28 13:03:01;;;;;;;5.75;5.25;;;4.00;99.90;;;;;;5084210;27;20547;-59
2021/12/28 13:05:45;;;;;;;6.55;5.40;;;4.00;99.90;;;;;;5102300;27;20701;-58
2021/12/28 13:08:25;;;;;;;5.60;5.07;;;4.00;99.90;;;;;;5144615;27;20944;-58
2021/12/28 13:11:05;;;;;;;6.07;5.47;;;4.00;99.90;;;;;;5084631;27;20558;-58
2021/12/28 13:13:50;;;;;;;5.95;5.53;;;4.00;99.90;;;;;;5103943;27;20666;-58
2021/12/28 13:16:31;;;;;;;5.82;5.35;;;3.90;99.90;;;;;;5083683;28;20683;-58
2021/12/28 13:19:12;;;;;;;5.65;5.15;;;3.80;99.90;;;;;;5104346;27;20546;-59
2021/12/28 13:21:58;;;;;;;4.43;4.03;;;3.70;99.90;;;;;;5083639;27;20554;-60
2021/12/28 13:24:45;;;;;;;5.82;5.28;;;3.70;99.90;;;;;;5124974;27;20544;-57
2021/12/28 13:27:25;;;;;;;4.55;4.15;;;3.70;99.90;;;;;;5104600;27;21028;-58
2021/12/28 13:30:08;;;;;;;4.78;4.38;;;3.70;99.90;;;;;;5124993;27;20532;-59
2021/12/28 13:32:47;;;;;;;5.28;4.85;;;3.70;99.90;;;;;;5104216;27;20658;-58
2021/12/28 13:35:30;;;;;;;6.00;5.50;;;3.70;99.90;;;;;;5083599;27;20990;-58
2021/12/28 13:38:12;;;;;;;5.38;4.88;;;3.70;99.90;;;;;;5104430;27;20673;-59
2021/12/28 13:40:53;;;;;;;4.97;4.57;;;3.70;99.90;;;;;;5082721;28;21080;-58
2021/12/28 13:43:35;;;;;;;5.75;5.18;;;3.80;99.90;;;;;;5082569;28;20576;-58
2021/12/28 13:46:14;;;;;;;5.38;4.85;;;3.80;99.90;;;;;;5143967;27;20538;-59
2021/12/28 13:48:54;;;;;;;5.45;5.05;;;3.90;99.90;;;;;;5081944;27;21116;-58
2021/12/28 13:51:35;;;;;;;6.45;5.95;;;3.90;99.90;;;;;;5144061;27;20599;-59
2021/12/28 13:54:14;;;;;;;6.22;5.70;;;4.00;99.90;;;;;;5082284;27;20556;-59
2021/12/28 13:56:55;;;;;;;7.40;6.70;;;4.00;99.90;;;;;;5103117;27;21109;-59